createdAt,value
2023-04-23T00:00:20.852Z,13.52
2023-04-23T00:02:49.888Z,13.67
2023-04-23T00:05:16.801Z,13.50
2023-04-23T00:07:43.426Z,13.29
2023-04-23T00:10:10.125Z,13.34
2023-04-23T00:12:36.540Z,13.21
2023-04-23T00:15:04.037Z,13.12
2023-04-23T00:17:30.487Z,12.98
2023-04-23T00:19:56.965Z,13.10
2023-04-23T00:22:23.397Z,12.94
2023-04-23T00:24:49.879Z,12.99
2023-04-23T00:27:18.106Z,13.01
2023-04-23T00:29:46.358Z,13.26
2023-04-23T00:32:14.581Z,13.33
2023-04-23T00:34:42.174Z,13.24
2023-04-23T00:37:08.997Z,13.10
2023-04-23T00:39:38.755Z,13.03
2023-04-23T00:42:11.544Z,13.23
2023-04-23T00:44:38.963Z,13.16
2023-04-23T00:47:05.915Z,13.19
2023-04-23T00:49:33.005Z,13.29
2023-04-23T00:52:00.661Z,13.24
2023-04-23T00:54:27.516Z,13.23
2023-04-23T00:56:54.724Z,13.21
2023-04-23T00:59:21.734Z,13.00
2023-04-23T01:01:48.294Z,13.03
2023-04-23T01:04:16.230Z,13.08
2023-04-23T01:06:43.969Z,12.98
2023-04-23T01:09:10.485Z,12.85
2023-04-23T01:11:42.218Z,12.74
2023-04-23T01:14:09.051Z,12.81
2023-04-23T01:16:37.579Z,12.76
2023-04-23T01:19:08.221Z,12.76
2023-04-23T01:21:35.100Z,12.51
2023-04-23T01:24:02.251Z,12.64
2023-04-23T01:26:28.763Z,12.90
2023-04-23T01:28:55.389Z,12.90
2023-04-23T01:31:22.590Z,12.65
2023-04-23T01:33:51.098Z,12.80
2023-04-23T01:36:19.213Z,12.77
2023-04-23T01:38:46.059Z,12.78
2023-04-23T01:41:12.474Z,12.93
2023-04-23T01:43:39.968Z,12.85
2023-04-23T01:46:06.465Z,12.73
2023-04-23T01:48:37.471Z,12.66
2023-04-23T01:51:03.877Z,12.78
2023-04-23T01:53:30.552Z,12.81
2023-04-23T01:55:57.240Z,12.79
2023-04-23T01:58:24.501Z,12.65
2023-04-23T02:00:50.959Z,12.79
2023-04-23T02:03:17.758Z,12.50
2023-04-23T02:05:44.782Z,12.52
2023-04-23T02:08:11.247Z,12.45
2023-04-23T02:10:37.649Z,12.40
2023-04-23T02:13:04.042Z,12.57
2023-04-23T02:15:30.490Z,12.57
2023-04-23T02:17:56.926Z,12.56
2023-04-23T02:20:23.442Z,12.44
2023-04-23T02:22:50.895Z,12.51
2023-04-23T02:25:18.853Z,12.41
2023-04-23T02:27:45.390Z,12.36
2023-04-23T02:30:12.451Z,12.28
2023-04-23T02:32:38.992Z,12.37
2023-04-23T02:35:06.683Z,12.39
2023-04-23T02:37:33.676Z,12.31
2023-04-23T02:40:00.058Z,11.97
2023-04-23T02:42:26.470Z,12.20
2023-04-23T02:44:53.009Z,12.00
2023-04-23T02:47:19.418Z,12.10
2023-04-23T02:49:45.853Z,12.03
2023-04-23T02:52:12.269Z,12.20
2023-04-23T02:54:38.884Z,12.19
2023-04-23T02:57:06.080Z,12.07
2023-04-23T02:59:32.814Z,11.98
2023-04-23T03:02:00.240Z,12.00
2023-04-23T03:04:26.906Z,12.07
2023-04-23T03:06:53.331Z,11.97
2023-04-23T03:09:19.793Z,12.01
2023-04-23T03:11:46.133Z,11.90
2023-04-23T03:14:12.548Z,11.87
2023-04-23T03:16:44.211Z,12.00
2023-04-23T03:19:10.878Z,12.04
2023-04-23T03:21:37.276Z,11.84
2023-04-23T03:24:03.789Z,11.82
2023-04-23T03:26:30.324Z,11.91
2023-04-23T03:28:56.737Z,11.94
2023-04-23T03:31:23.206Z,11.96
2023-04-23T03:33:49.627Z,11.86
2023-04-23T03:36:16.151Z,11.98
2023-04-23T03:38:42.625Z,11.89
2023-04-23T03:41:09.100Z,11.80
2023-04-23T03:43:35.534Z,11.97
2023-04-23T03:46:01.937Z,12.06
2023-04-23T03:48:28.371Z,12.01
2023-04-23T03:50:54.822Z,11.99
2023-04-23T03:53:21.680Z,12.07
2023-04-23T03:55:48.126Z,11.99
2023-04-23T03:58:14.561Z,11.70
2023-04-23T04:00:41.287Z,11.85
2023-04-23T04:03:08.961Z,11.93
2023-04-23T04:05:35.691Z,11.63
2023-04-23T04:08:02.206Z,11.75
2023-04-23T04:10:28.661Z,11.62
2023-04-23T04:12:55.343Z,11.85
2023-04-23T04:15:21.746Z,11.76
2023-04-23T04:17:48.169Z,11.85
2023-04-23T04:20:14.649Z,11.78
2023-04-23T04:22:41.143Z,11.79
2023-04-23T04:25:07.974Z,11.89
2023-04-23T04:27:35.475Z,11.97
2023-04-23T04:30:02.030Z,12.00
2023-04-23T04:32:28.626Z,11.88
2023-04-23T04:34:55.077Z,11.93
2023-04-23T04:37:21.675Z,11.84
2023-04-23T04:39:48.090Z,11.82
2023-04-23T04:42:15.674Z,11.75
2023-04-23T04:44:43.615Z,11.81
2023-04-23T04:47:10.804Z,11.79
2023-04-23T04:49:38.276Z,11.79
2023-04-23T04:52:04.737Z,11.84
2023-04-23T04:54:31.116Z,11.89
2023-04-23T04:56:57.515Z,11.89
2023-04-23T04:59:23.971Z,11.94
2023-04-23T05:01:50.499Z,11.90
2023-04-23T05:04:17.338Z,11.91
2023-04-23T05:06:44.358Z,11.89
2023-04-23T05:09:11.188Z,11.98
2023-04-23T05:11:37.765Z,12.03
2023-04-23T05:14:04.682Z,11.96
2023-04-23T05:16:31.211Z,12.04
2023-04-23T05:18:57.982Z,12.10
2023-04-23T05:21:24.404Z,12.16
2023-04-23T05:23:50.835Z,12.14
2023-04-23T05:26:18.219Z,12.16
2023-04-23T05:28:44.659Z,12.25
2023-04-23T05:31:11.497Z,12.24
2023-04-23T05:33:49.330Z,12.26
2023-04-23T05:36:17.145Z,12.28
2023-04-23T05:38:43.624Z,12.33
2023-04-23T05:41:10.177Z,12.26
2023-04-23T05:43:36.611Z,12.44
2023-04-23T05:46:04.770Z,12.23
2023-04-23T05:48:31.932Z,12.30
2023-04-23T05:50:58.475Z,12.60
2023-04-23T05:53:27.861Z,12.58
2023-04-23T05:55:54.267Z,12.74
2023-04-23T05:58:21.814Z,12.80
2023-04-23T06:00:48.459Z,12.78
2023-04-23T06:03:15.191Z,12.79
2023-04-23T06:05:43.294Z,12.70
2023-04-23T06:08:09.853Z,12.79
2023-04-23T06:10:36.283Z,12.55
2023-04-23T06:13:02.906Z,12.73
2023-04-23T06:15:29.338Z,12.71
2023-04-23T06:17:55.926Z,12.74
2023-04-23T06:20:22.508Z,12.86
2023-04-23T06:22:48.931Z,12.74
2023-04-23T06:25:15.387Z,12.67
2023-04-23T06:27:41.821Z,12.74
2023-04-23T06:30:08.747Z,12.61
2023-04-23T06:32:35.173Z,12.53
2023-04-23T06:35:02.443Z,12.52
2023-04-23T06:37:30.842Z,12.43
2023-04-23T06:39:58.602Z,12.34
2023-04-23T06:42:25.097Z,12.46
2023-04-23T06:44:51.991Z,12.37
2023-04-23T06:47:19.639Z,12.34
2023-04-23T06:49:46.527Z,12.46
2023-04-23T06:52:13.011Z,12.59
2023-04-23T06:54:39.759Z,12.57
2023-04-23T06:57:06.538Z,12.52
2023-04-23T06:59:32.989Z,12.32
2023-04-23T07:02:00.619Z,12.45
2023-04-23T07:04:27.159Z,12.54
2023-04-23T07:06:53.597Z,12.59
2023-04-23T07:09:20.015Z,12.62
2023-04-23T07:11:46.510Z,12.76
2023-04-23T07:14:12.933Z,12.93
2023-04-23T07:16:40.475Z,12.90
2023-04-23T07:19:06.873Z,12.68
2023-04-23T07:21:33.557Z,12.75
2023-04-23T07:24:00.848Z,13.09
2023-04-23T07:26:28.101Z,13.23
2023-04-23T07:28:54.730Z,13.04
2023-04-23T07:31:21.954Z,13.08
2023-04-23T07:33:48.470Z,13.08
2023-04-23T07:36:14.978Z,13.01
2023-04-23T07:38:41.874Z,13.00
2023-04-23T07:41:08.321Z,12.68
2023-04-23T07:43:34.751Z,12.58
2023-04-23T07:46:01.881Z,12.78
2023-04-23T07:48:28.432Z,12.77
2023-04-23T07:50:56.616Z,12.98
2023-04-23T07:53:23.019Z,13.18
2023-04-23T07:55:49.423Z,13.03
2023-04-23T07:58:15.791Z,12.85
2023-04-23T08:00:42.249Z,13.04
2023-04-23T08:03:08.745Z,13.26
2023-04-23T08:05:37.302Z,13.07
2023-04-23T08:08:03.805Z,12.89
2023-04-23T08:10:30.244Z,13.21
2023-04-23T08:12:56.652Z,13.13
2023-04-23T08:15:24.137Z,13.13
2023-04-23T08:17:50.766Z,13.18
2023-04-23T08:20:18.142Z,13.31
2023-04-23T08:22:44.711Z,13.37
2023-04-23T08:25:12.815Z,13.38
2023-04-23T08:27:39.310Z,13.32
2023-04-23T08:30:06.867Z,13.22
2023-04-23T08:32:33.335Z,13.33
2023-04-23T08:34:59.852Z,13.21
2023-04-23T08:37:31.022Z,13.45
2023-04-23T08:39:57.899Z,13.48
2023-04-23T08:42:30.296Z,13.70
2023-04-23T08:44:56.977Z,13.45
2023-04-23T08:47:24.418Z,13.67
2023-04-23T08:49:53.903Z,13.58
2023-04-23T08:52:44.410Z,13.66
2023-04-23T08:55:10.882Z,13.36
2023-04-23T08:57:39.034Z,13.58
2023-04-23T09:00:06.543Z,13.54
2023-04-23T09:02:34.071Z,13.56
2023-04-23T09:05:02.384Z,13.63
2023-04-23T09:07:30.033Z,13.87
2023-04-23T09:09:57.068Z,14.12
2023-04-23T09:12:23.550Z,14.44
2023-04-23T09:14:51.008Z,14.79
2023-04-23T09:17:18.295Z,14.98
2023-04-23T09:19:46.752Z,15.29
2023-04-23T09:22:13.170Z,15.20
2023-04-23T09:24:42.711Z,15.25
2023-04-23T09:27:09.467Z,15.47
2023-04-23T09:29:35.933Z,15.05
2023-04-23T09:32:09.130Z,15.17
2023-04-23T09:34:37.619Z,15.33
2023-04-23T09:37:05.084Z,14.98
2023-04-23T09:39:33.370Z,15.05
2023-04-23T09:42:05.985Z,15.18
2023-04-23T09:44:33.407Z,15.13
2023-04-23T09:47:06.462Z,15.57
2023-04-23T09:49:32.863Z,15.72
2023-04-23T09:52:05.673Z,15.83
2023-04-23T09:54:32.044Z,15.48
2023-04-23T09:57:00.931Z,15.58
2023-04-23T10:02:04.458Z,15.56
2023-04-23T10:04:31.006Z,15.54
2023-04-23T10:07:13.637Z,15.58
2023-04-23T10:09:44.407Z,15.43
2023-04-23T10:12:24.218Z,15.56
2023-04-23T10:14:59.766Z,15.46
2023-04-23T10:17:27.385Z,15.56
2023-04-23T10:19:55.651Z,15.57
2023-04-23T10:22:23.073Z,15.25
2023-04-23T10:24:53.090Z,15.28
2023-04-23T10:27:28.822Z,15.51
2023-04-23T10:30:06.298Z,15.40
2023-04-23T10:32:36.104Z,15.38
2023-04-23T10:35:02.598Z,15.49
2023-04-23T10:37:29.085Z,15.30
2023-04-23T10:39:56.450Z,15.46
2023-04-23T10:42:23.335Z,15.34
2023-04-23T10:44:59.402Z,15.22
2023-04-23T10:47:31.336Z,15.48
2023-04-23T10:49:57.756Z,15.27
2023-04-23T10:52:25.931Z,15.44
2023-04-23T10:55:01.981Z,15.56
2023-04-23T10:57:28.522Z,15.66
2023-04-23T10:59:56.286Z,15.54
2023-04-23T11:02:26.256Z,15.57
2023-04-23T11:04:57.363Z,15.97
2023-04-23T11:07:34.183Z,16.05
2023-04-23T11:10:01.213Z,15.82
2023-04-23T11:12:28.334Z,16.50
2023-04-23T11:14:55.338Z,16.89
2023-04-23T11:17:41.708Z,16.86
2023-04-23T11:20:13.820Z,17.59
2023-04-23T11:22:41.494Z,17.58
2023-04-23T11:25:11.977Z,17.22
2023-04-23T11:27:39.549Z,16.87
2023-04-23T11:30:07.230Z,17.19
2023-04-23T11:32:33.715Z,17.05
2023-04-23T11:35:02.823Z,16.92
2023-04-23T11:37:29.268Z,16.90
2023-04-23T11:39:56.586Z,16.70
2023-04-23T11:42:23.274Z,16.92
2023-04-23T11:44:49.652Z,16.90
2023-04-23T11:47:19.313Z,16.88
2023-04-23T11:49:46.194Z,16.94
2023-04-23T11:52:14.415Z,16.79
2023-04-23T11:54:41.522Z,16.78
2023-04-23T11:57:08.522Z,16.59
2023-04-23T11:59:34.959Z,16.56
2023-04-23T12:02:01.442Z,16.43
2023-04-23T12:04:28.894Z,16.59
2023-04-23T12:06:56.126Z,16.58
2023-04-23T12:09:23.667Z,16.64
2023-04-23T12:11:53.075Z,16.64
2023-04-23T12:14:28.745Z,16.82
2023-04-23T12:16:55.983Z,16.92
2023-04-23T12:19:27.378Z,16.71
2023-04-23T12:21:55.773Z,16.97
2023-04-23T12:24:33.097Z,17.37
2023-04-23T12:27:02.896Z,17.34
2023-04-23T12:29:30.253Z,17.39
2023-04-23T12:31:58.487Z,17.45
2023-04-23T12:34:25.070Z,17.08
2023-04-23T12:36:52.953Z,17.41
2023-04-23T12:39:27.417Z,17.37
2023-04-23T12:41:54.522Z,17.37
2023-04-23T12:44:21.297Z,17.24
2023-04-23T12:46:57.042Z,17.66
2023-04-23T12:49:24.966Z,17.63
2023-04-23T12:51:52.670Z,18.27
2023-04-23T12:54:19.594Z,17.79
2023-04-23T12:56:46.999Z,17.70
2023-04-23T12:59:13.415Z,17.58
2023-04-23T13:01:39.908Z,17.55
2023-04-23T13:04:06.526Z,17.60
2023-04-23T13:06:33.071Z,17.77
2023-04-23T13:09:02.233Z,17.61
2023-04-23T13:11:28.629Z,17.68
2023-04-23T13:13:55.079Z,17.48
2023-04-23T13:16:21.677Z,17.30
2023-04-23T13:18:48.347Z,17.53
2023-04-23T13:21:14.754Z,17.63
2023-04-23T13:23:41.187Z,17.89
2023-04-23T13:26:09.601Z,17.92
2023-04-23T13:28:36.335Z,17.92
2023-04-23T13:31:03.094Z,17.68
2023-04-23T13:33:31.271Z,17.47
2023-04-23T13:36:00.623Z,17.25
2023-04-23T13:38:29.236Z,17.46
2023-04-23T13:40:55.858Z,17.56
2023-04-23T13:43:22.269Z,17.62
2023-04-23T13:45:48.812Z,17.75
2023-04-23T13:48:15.647Z,17.97
2023-04-23T13:50:45.300Z,17.98
2023-04-23T13:53:12.111Z,17.99
2023-04-23T13:55:38.770Z,17.82
2023-04-23T13:58:06.828Z,18.16
2023-04-23T14:00:34.345Z,18.29
2023-04-23T14:03:00.906Z,18.21
2023-04-23T14:05:27.519Z,18.68
2023-04-23T14:07:53.927Z,18.62
2023-04-23T14:10:20.374Z,18.54
2023-04-23T14:12:46.853Z,18.33
2023-04-23T14:15:13.531Z,18.50
2023-04-23T14:17:40.820Z,18.66
2023-04-23T14:20:07.828Z,18.69
2023-04-23T14:22:35.522Z,18.56
2023-04-23T14:25:02.835Z,18.49
2023-04-23T14:27:34.198Z,18.39
2023-04-23T14:30:05.162Z,18.07
2023-04-23T14:32:32.067Z,18.02
2023-04-23T14:35:00.640Z,18.51
2023-04-23T14:37:30.726Z,18.38
2023-04-23T14:39:57.154Z,18.25
2023-04-23T14:42:23.586Z,18.15
2023-04-23T14:44:50.473Z,17.96
2023-04-23T14:47:19.552Z,17.98
2023-04-23T14:49:46.242Z,17.99
2023-04-23T14:52:12.766Z,18.03
2023-04-23T14:54:39.275Z,18.00
2023-04-23T14:57:05.807Z,17.94
2023-04-23T14:59:32.260Z,18.06
2023-04-23T15:01:59.969Z,18.24
2023-04-23T15:04:27.208Z,18.49
2023-04-23T15:06:54.005Z,18.18
2023-04-23T15:09:20.442Z,18.52
2023-04-23T15:11:46.872Z,18.58
2023-04-23T15:14:13.293Z,18.34
2023-04-23T15:16:48.840Z,18.53
2023-04-23T15:19:20.789Z,18.57
2023-04-23T15:21:49.789Z,18.23
2023-04-23T15:24:16.758Z,18.34
2023-04-23T15:26:43.684Z,18.54
2023-04-23T15:29:10.618Z,18.28
2023-04-23T15:31:37.678Z,18.38
2023-04-23T15:34:06.321Z,18.31
2023-04-23T15:36:33.417Z,18.66
2023-04-23T15:39:02.921Z,18.18
2023-04-23T15:41:29.467Z,18.30
2023-04-23T15:43:56.665Z,18.13
2023-04-23T15:46:24.226Z,18.09
2023-04-23T15:48:50.842Z,17.97
2023-04-23T15:51:17.805Z,17.84
2023-04-23T15:53:44.395Z,17.99
2023-04-23T15:56:10.827Z,18.23
2023-04-23T15:59:22.308Z,18.22
2023-04-23T16:01:48.814Z,18.04
2023-04-23T16:04:15.976Z,18.21
2023-04-23T16:06:42.550Z,18.04
2023-04-23T16:09:09.129Z,18.02
2023-04-23T16:11:38.851Z,17.77
2023-04-23T16:14:06.237Z,17.98
2023-04-23T16:16:32.978Z,18.32
2023-04-23T16:18:59.690Z,18.39
2023-04-23T16:21:27.945Z,18.13
2023-04-23T16:23:55.354Z,18.17
2023-04-23T16:26:21.846Z,18.25
2023-04-23T16:28:52.284Z,18.24
2023-04-23T16:31:27.397Z,18.18
2023-04-23T16:33:53.907Z,18.14
2023-04-23T16:36:21.366Z,18.20
2023-04-23T16:38:49.556Z,18.21
2023-04-23T16:41:17.930Z,18.09
2023-04-23T16:43:44.382Z,17.90
2023-04-23T16:46:30.972Z,17.96
2023-04-23T16:49:00.833Z,17.97
2023-04-23T16:51:29.424Z,18.06
2023-04-23T16:53:58.792Z,18.02
2023-04-23T16:56:25.372Z,18.03
2023-04-23T16:58:51.952Z,17.73
2023-04-23T17:01:18.464Z,17.82
2023-04-23T17:03:45.775Z,17.67
2023-04-23T17:06:20.198Z,17.45
2023-04-23T17:08:49.677Z,17.43
2023-04-23T17:11:16.117Z,17.37
2023-04-23T17:13:45.583Z,17.39
2023-04-23T17:16:12.157Z,17.43
2023-04-23T17:18:38.576Z,17.35
2023-04-23T17:21:05.009Z,17.23
2023-04-23T17:23:32.473Z,17.08
2023-04-23T17:25:58.904Z,17.30
2023-04-23T17:28:25.533Z,17.17
2023-04-23T17:30:53.876Z,17.16
2023-04-23T17:33:20.914Z,17.10
2023-04-23T17:35:48.991Z,16.94
2023-04-23T17:38:20.235Z,17.00
2023-04-23T17:40:47.612Z,16.88
2023-04-23T17:43:14.070Z,16.82
2023-04-23T17:45:40.778Z,16.76
2023-04-23T17:48:07.436Z,16.75
2023-04-23T17:50:34.030Z,16.75
2023-04-23T17:53:00.898Z,16.73
2023-04-23T17:55:27.314Z,16.64
2023-04-23T17:57:53.766Z,16.56
2023-04-23T18:00:20.207Z,16.43
2023-04-23T18:02:46.930Z,16.21
2023-04-23T18:05:14.614Z,16.22
2023-04-23T18:07:43.952Z,16.27
2023-04-23T18:10:12.196Z,16.22
2023-04-23T18:12:38.855Z,16.13
2023-04-23T18:15:05.674Z,15.98
2023-04-23T18:17:32.426Z,15.80
2023-04-23T18:19:58.880Z,15.63
2023-04-23T18:22:25.290Z,15.36
2023-04-23T18:24:51.794Z,15.21
2023-04-23T18:27:18.224Z,15.09
2023-04-23T18:29:45.610Z,14.94
2023-04-23T18:32:20.904Z,14.91
2023-04-23T18:34:56.490Z,14.91
2023-04-23T18:37:42.550Z,14.84
2023-04-23T18:40:09.259Z,14.78
2023-04-23T18:42:35.781Z,14.92
2023-04-23T18:45:04.223Z,14.86
2023-04-23T18:47:32.024Z,14.73
2023-04-23T18:50:05.314Z,14.70
2023-04-23T18:52:31.980Z,14.60
2023-04-23T18:54:58.400Z,14.68
2023-04-23T18:57:26.836Z,14.67
2023-04-23T18:59:53.384Z,14.56
2023-04-23T19:02:34.583Z,14.46
2023-04-23T19:05:03.551Z,14.34
2023-04-23T19:07:30.040Z,14.33
2023-04-23T19:09:56.609Z,14.25
2023-04-23T19:12:23.016Z,14.11
2023-04-23T19:14:49.408Z,14.10
2023-04-23T19:17:18.483Z,14.06
2023-04-23T19:19:45.348Z,13.98
2023-04-23T19:22:11.762Z,13.87
2023-04-23T19:24:38.156Z,13.81
2023-04-23T19:27:05.509Z,13.86
2023-04-23T19:29:31.949Z,13.88
2023-04-23T19:31:58.420Z,13.88
2023-04-23T19:34:26.251Z,13.84
2023-04-23T19:36:52.663Z,13.85
2023-04-23T19:39:19.154Z,13.85
2023-04-23T19:41:45.940Z,13.88
2023-04-23T19:44:12.329Z,13.89
2023-04-23T19:46:38.728Z,13.84
2023-04-23T19:49:05.220Z,13.88
2023-04-23T19:51:35.527Z,13.97
2023-04-23T19:54:02.416Z,13.87
2023-04-23T19:56:28.825Z,13.85
2023-04-23T19:58:55.806Z,13.87
2023-04-23T20:01:22.524Z,13.87
2023-04-23T20:03:50.884Z,13.78
2023-04-23T20:06:17.349Z,13.19
2023-04-23T20:09:03.752Z,13.34
2023-04-23T20:11:31.340Z,13.17
2023-04-23T20:13:57.805Z,12.84
2023-04-23T20:16:24.379Z,12.49
2023-04-23T20:18:52.890Z,11.65
2023-04-23T20:21:19.306Z,11.58
2023-04-23T20:23:45.846Z,11.48
2023-04-23T20:26:12.451Z,11.64
2023-04-23T20:28:39.131Z,11.80
2023-04-23T20:31:05.653Z,11.69
2023-04-23T20:33:32.932Z,11.67
2023-04-23T20:36:01.663Z,11.65
2023-04-23T20:38:30.779Z,11.66
2023-04-23T20:41:02.397Z,11.79
2023-04-23T20:43:29.666Z,11.91
2023-04-23T20:45:56.775Z,11.95
2023-04-23T20:48:25.804Z,11.82
2023-04-23T20:50:52.582Z,11.93
2023-04-23T20:53:18.994Z,11.94
2023-04-23T20:55:45.413Z,12.10
2023-04-23T20:58:11.882Z,12.04
2023-04-23T21:00:38.348Z,11.97
2023-04-23T21:03:06.143Z,11.96
2023-04-23T21:05:32.662Z,11.90
2023-04-23T21:07:59.233Z,11.97
2023-04-23T21:10:25.732Z,11.94
2023-04-23T21:12:52.405Z,12.04
2023-04-23T21:15:18.965Z,11.98
2023-04-23T21:17:45.529Z,11.88
2023-04-23T21:20:11.992Z,11.74
2023-04-23T21:22:38.716Z,11.69
2023-04-23T21:25:05.372Z,11.88
2023-04-23T21:27:31.968Z,11.92
2023-04-23T21:30:04.798Z,11.87
2023-04-23T21:32:31.321Z,11.77
2023-04-23T21:34:57.772Z,11.71
2023-04-23T21:37:24.184Z,11.85
2023-04-23T21:39:50.564Z,11.72
2023-04-23T21:42:17.007Z,11.77
2023-04-23T21:44:43.460Z,11.77
2023-04-23T21:47:09.905Z,11.76
2023-04-23T21:49:37.135Z,11.55
2023-04-23T21:52:03.544Z,11.53
2023-04-23T21:54:31.056Z,11.52
2023-04-23T21:56:57.452Z,11.50
2023-04-23T21:59:24.755Z,11.42
2023-04-23T22:01:51.286Z,11.32
2023-04-23T22:04:18.260Z,11.45
2023-04-23T22:06:46.517Z,11.59
2023-04-23T22:09:13.543Z,11.65
2023-04-23T22:11:42.478Z,11.50
2023-04-23T22:14:12.731Z,11.54
2023-04-23T22:16:39.616Z,11.43
2023-04-23T22:19:06.109Z,11.42
2023-04-23T22:21:32.987Z,11.42
2023-04-23T22:23:59.387Z,11.32
2023-04-23T22:26:25.799Z,11.48
2023-04-23T22:28:52.196Z,11.35
2023-04-23T22:31:18.700Z,11.32
2023-04-23T22:33:45.214Z,11.22
2023-04-23T22:36:11.648Z,11.26
2023-04-23T22:38:38.843Z,11.27
2023-04-23T22:41:05.288Z,11.39
2023-04-23T22:43:31.700Z,11.37
2023-04-23T22:45:58.141Z,11.26
2023-04-23T22:48:24.565Z,11.17
2023-04-23T22:50:51.069Z,11.16
2023-04-23T22:53:19.616Z,11.11
2023-04-23T22:55:46.545Z,11.15
2023-04-23T22:58:12.986Z,10.99
2023-04-23T23:00:39.388Z,11.16
2023-04-23T23:03:06.137Z,11.07
2023-04-23T23:05:32.667Z,11.15
2023-04-23T23:07:59.099Z,11.26
2023-04-23T23:10:26.567Z,11.02
2023-04-23T23:12:53.103Z,11.27
2023-04-23T23:15:21.506Z,11.23
2023-04-23T23:17:47.901Z,11.27
2023-04-23T23:20:14.719Z,11.28
2023-04-23T23:22:41.128Z,11.25
2023-04-23T23:25:07.848Z,11.27
2023-04-23T23:27:34.369Z,11.28
2023-04-23T23:30:05.565Z,11.38
2023-04-23T23:32:33.637Z,11.31
2023-04-23T23:35:00.404Z,11.36
2023-04-23T23:37:29.517Z,11.38
2023-04-23T23:39:55.984Z,11.37
2023-04-23T23:42:22.426Z,11.35
2023-04-23T23:44:48.856Z,11.49
2023-04-23T23:47:15.305Z,11.44
2023-04-23T23:49:42.111Z,11.45
2023-04-23T23:52:08.765Z,11.37
2023-04-23T23:54:36.028Z,11.28
2023-04-23T23:57:02.560Z,11.26
2023-04-23T23:59:28.991Z,11.28
